No particular awareness of the weather is required.    There are no Weather-warnings


Meteo18 Weather Cam more information Meteo18 Weather Cam


Thunder radar more information blitzortung!


Rain radar more information rain snow radar


Visit our other weather sites:

Template documentation
and downloads

And another site



Weather Underground History page Text

Daily Summary for June 24, 2017 Units:  English    Metric   Both
« Previous Day
Next Day »
Daily Weekly Monthly Yearly Custom
  High: Low: Average:
Temperature: 77.2 °F 59.2 °F 68.2 °F
Dew Point: 59.9 °F 53.4 °F 55.9 °F
Humidity: 90 % 45 % 67 %
Wind Speed: 13 mph 0 mph 2.9 mph
Wind Gust: 17 mph - -
Wind:- - West
Pressure: 30.2 in 30.1 in -
Precipitation: 0 in    
Historical Graphs
 
 
Tabular Data for June 24, 2017
Time Temperature Dew Point Pressure Wind Wind Speed Wind Gust Humidity Rainfall Rate (Hourly)
00:02 65.8 °F 59.9 °F 30.2 in Calm     81 % 0 in
00:07 65.7 °F 59.7 °F 30.2 in Calm     81 % 0 in
00:12 65.3 °F 59.7 °F 30.2 in Calm     82 % 0 in
00:17 64.8 °F 59.5 °F 30.2 in Calm     83 % 0 in
00:22 64.6 °F 59.7 °F 30.2 in Calm     84 % 0 in
00:27 64.6 °F 59.9 °F 30.2 in Calm     85 % 0 in
00:32 63.9 °F 59 °F 30.2 in Calm     84 % 0 in
00:37 63.7 °F 59.4 °F 30.2 in Calm     86 % 0 in
00:42 63.7 °F 59.4 °F 30.2 in Calm     86 % 0 in
00:52 63.9 °F 59.5 °F 30.2 in Calm     86 % 0 in
01:02 63.5 °F 59.5 °F 30.2 in Calm     87 % 0 in
01:12 63 °F 58.6 °F 30.2 in Calm     86 % 0 in
01:17 62.8 °F 58.5 °F 30.2 in Calm   4 mph 86 % 0 in
01:22 62.4 °F 58.1 °F 30.2 in Calm   4 mph 86 % 0 in
01:32 62.4 °F 58.5 °F 30.2 in Calm   1 mph 87 % 0 in
01:37 62.1 °F 58.1 °F 30.2 in Calm   1 mph 87 % 0 in
01:42 61.9 °F 57.9 °F 30.2 in SSE 1 mph 1 mph 87 % 0 in
01:52 61.9 °F 58.3 °F 30.2 in NNE 2 mph 5 mph 88 % 0 in
01:57 61.3 °F 57.4 °F 30.2 in Calm   5 mph 87 % 0 in
02:02 61.2 °F 57.6 °F 30.2 in Calm   5 mph 88 % 0 in
02:12 61.2 °F 57.9 °F 30.2 in Calm   4 mph 89 % 0 in
02:17 61 °F 57.4 °F 30.2 in Calm     88 % 0 in
02:22 60.6 °F 57 °F 30.2 in Calm     88 % 0 in
02:27 60.4 °F 57.2 °F 30.2 in WNW 1 mph   89 % 0 in
02:32 60.3 °F 57 °F 30.2 in WNW 1 mph   89 % 0 in
02:37 60.1 °F 57.2 °F 30.2 in Calm   2 mph 90 % 0 in
02:42 60.1 °F 57.2 °F 30.2 in WNW 1 mph 2 mph 90 % 0 in
02:47 60.1 °F 56.8 °F 30.2 in WNW 1 mph 2 mph 89 % 0 in
02:52 60.3 °F 56.7 °F 30.2 in NNW 1 mph 2 mph 88 % 0 in
02:57 61 °F 56.5 °F 30.2 in NNW 1 mph 2 mph 85 % 0 in
03:02 61.5 °F 55.9 °F 30.2 in NW 1 mph 2 mph 82 % 0 in
03:07 62.1 °F 55.8 °F 30.2 in Calm   2 mph 80 % 0 in
03:12 61.9 °F 55.2 °F 30.2 in WNW 1 mph 2 mph 79 % 0 in
03:17 62.1 °F 55.4 °F 30.2 in NNW 1 mph 3 mph 79 % 0 in
03:22 61.9 °F 55.2 °F 30.2 in Calm   3 mph 79 % 0 in
03:32 60.6 °F 54.7 °F 30.2 in Calm   3 mph 81 % 0 in
03:37 60.3 °F 55.4 °F 30.2 in Calm   1 mph 84 % 0 in
03:42 59.9 °F 55.4 °F 30.2 in WNW 1 mph 1 mph 85 % 0 in
03:52 59.9 °F 55 °F 30.2 in NNW 1 mph 1 mph 84 % 0 in
03:57 60.1 °F 54.9 °F 30.2 in NW 1 mph 2 mph 83 % 0 in
04:02 60.3 °F 55 °F 30.2 in Calm   2 mph 83 % 0 in
04:07 60.1 °F 54.9 °F 30.2 in NW 1 mph 3 mph 83 % 0 in
04:12 59.9 °F 55 °F 30.2 in NW 1 mph 3 mph 84 % 0 in
04:17 59.7 °F 54.9 °F 30.2 in NW 1 mph 4 mph 84 % 0 in
04:22 59.5 °F 54.7 °F 30.2 in Calm   4 mph 84 % 0 in
04:32 59.4 °F 54.9 °F 30.2 in Calm   4 mph 85 % 0 in
04:37 59.4 °F 54.9 °F 30.2 in Calm     85 % 0 in
04:42 59.4 °F 54.9 °F 30.2 in Calm     85 % 0 in
04:47 59.5 °F 55 °F 30.2 in Calm     85 % 0 in
04:52 59.5 °F 55 °F 30.2 in Calm     85 % 0 in
05:02 59.7 °F 55.2 °F 30.2 in Calm     85 % 0 in
05:12 59.5 °F 55 °F 30.2 in Calm     85 % 0 in
05:17 59.5 °F 55 °F 30.2 in Calm     85 % 0 in
05:22 59.4 °F 54.9 °F 30.2 in Calm     85 % 0 in
05:32 59.5 °F 55 °F 30.2 in Calm     85 % 0 in
05:42 59.9 °F 55.4 °F 30.2 in Calm     85 % 0 in
05:47 59.9 °F 55.4 °F 30.2 in Calm     85 % 0 in
05:57 59.5 °F 55.4 °F 30.2 in Calm     86 % 0 in
06:02 59.5 °F 55.4 °F 30.2 in Calm     86 % 0 in
06:12 59.4 °F 55.4 °F 30.2 in Calm     87 % 0 in
06:17 59.2 °F 55.4 °F 30.2 in Calm     87 % 0 in
06:22 59.2 °F 55.6 °F 30.2 in Calm     88 % 0 in
06:32 59.4 °F 55.8 °F 30.2 in Calm     88 % 0 in
06:42 59.4 °F 55.8 °F 30.2 in Calm     88 % 0 in
06:47 59.5 °F 55.9 °F 30.2 in Calm     88 % 0 in
06:52 59.5 °F 55.9 °F 30.2 in Calm     88 % 0 in
07:02 59.9 °F 56.3 °F 30.2 in Calm     88 % 0 in
07:12 60.3 °F 56.7 °F 30.2 in Calm     88 % 0 in
07:17 60.3 °F 56.7 °F 30.2 in Calm     88 % 0 in
07:22 60.3 °F 56.7 °F 30.2 in Calm     88 % 0 in
07:32 60.6 °F 56.7 °F 30.2 in Calm     87 % 0 in
07:42 60.8 °F 56.7 °F 30.2 in Calm     86 % 0 in
07:52 61.2 °F 57 °F 30.2 in Calm     86 % 0 in
07:57 61.2 °F 57 °F 30.2 in Calm     86 % 0 in
08:02 61.3 °F 56.8 °F 30.2 in Calm     85 % 0 in
08:12 61.7 °F 56.8 °F 30.2 in Calm     84 % 0 in
08:17 62.1 °F 57.2 °F 30.2 in Calm     84 % 0 in
08:22 62.2 °F 57 °F 30.2 in Calm     83 % 0 in
08:32 62.8 °F 57.2 °F 30.2 in Calm     82 % 0 in
08:42 63.3 °F 57.7 °F 30.2 in Calm     82 % 0 in
08:47 63.3 °F 57.7 °F 30.2 in Calm   2 mph 82 % 0 in
08:52 63.5 °F 57.9 °F 30.2 in East 1 mph 2 mph 82 % 0 in
08:57 63.7 °F 58.1 °F 30.2 in Calm   3 mph 82 % 0 in
09:02 64.8 °F 58.8 °F 30.2 in Calm   3 mph 81 % 0 in
09:07 65.8 °F 58.8 °F 30.2 in SE 1 mph 3 mph 78 % 0 in
09:12 66.2 °F 58.5 °F 30.2 in Calm   3 mph 76 % 0 in
09:17 66.6 °F 58.8 °F 30.2 in Calm   3 mph 76 % 0 in
09:22 67.3 °F 58.6 °F 30.2 in SSE 2 mph 3 mph 74 % 0 in
09:32 66.9 °F 59.2 °F 30.2 in South 2 mph 6 mph 76 % 0 in
09:42 66.6 °F 58.1 °F 30.2 in SSW 4 mph 6 mph 74 % 0 in
09:47 66.6 °F 58.5 °F 30.2 in South 3 mph 9 mph 75 % 0 in
09:52 66.9 °F 58.8 °F 30.2 in SSW 5 mph 9 mph 75 % 0 in
10:02 66.6 °F 59.2 °F 30.2 in WSW 3 mph 12 mph 77 % 0 in
10:12 66.6 °F 58.8 °F 30.2 in SW 7 mph 12 mph 76 % 0 in
10:17 66.7 °F 58.6 °F 30.2 in SW 8 mph 10 mph 75 % 0 in
10:22 66.7 °F 57.7 °F 30.2 in SW 8 mph 10 mph 73 % 0 in
10:32 67.5 °F 58.1 °F 30.2 in WSW 5 mph 12 mph 72 % 0 in
10:42 67.6 °F 57.9 °F 30.2 in WSW 11 mph 13 mph 71 % 0 in
10:47 67.3 °F 57.6 °F 30.2 in SW 6 mph 13 mph 71 % 0 in
10:52 67.1 °F 57.7 °F 30.2 in West 6 mph 13 mph 72 % 0 in
11:02 67.3 °F 57.2 °F 30.2 in WSW 10 mph 13 mph 70 % 0 in
11:12 67.8 °F 57.7 °F 30.2 in West 11 mph 13 mph 70 % 0 in
11:17 68.2 °F 57.6 °F 30.2 in West 2 mph 12 mph 69 % 0 in
11:22 68.7 °F 57.4 °F 30.2 in SW 7 mph 12 mph 67 % 0 in
11:32 69.1 °F 57.2 °F 30.2 in SSW 5 mph 15 mph 66 % 0 in
11:42 70 °F 58.1 °F 30.2 in SW 12 mph 15 mph 66 % 0 in
11:52 69.4 °F 55.9 °F 30.2 in WSW 5 mph 15 mph 62 % 0 in
12:02 69.1 °F 55.9 °F 30.2 in West 2 mph 15 mph 63 % 0 in
12:07 69.8 °F 56.7 °F 30.2 in South 7 mph 13 mph 63 % 0 in
12:12 70.2 °F 57 °F 30.2 in South 6 mph 13 mph 63 % 0 in
12:17 70.5 °F 55.6 °F 30.2 in WNW 6 mph 14 mph 59 % 0 in
12:22 70.9 °F 56.3 °F 30.2 in WSW 1 mph 14 mph 60 % 0 in
12:32 71.2 °F 55.8 °F 30.2 in SW 10 mph 13 mph 58 % 0 in
12:42 71.2 °F 54.7 °F 30.2 in WNW 6 mph 13 mph 56 % 0 in
12:52 72 °F 55.9 °F 30.2 in WSW 11 mph 14 mph 57 % 0 in
12:57 72 °F 55.4 °F 30.2 in WSW 4 mph 14 mph 56 % 0 in
13:02 72.3 °F 55.2 °F 30.1 in WSW 13 mph 13 mph 55 % 0 in
13:07 72.1 °F 55 °F 30.2 in West 6 mph 13 mph 55 % 0 in
13:12 72.7 °F 55.6 °F 30.1 in West 5 mph 13 mph 55 % 0 in
13:17 72.7 °F 55 °F 30.1 in WNW 3 mph 13 mph 54 % 0 in
13:22 72.7 °F 55 °F 30.1 in WNW 4 mph 12 mph 54 % 0 in
13:32 72.7 °F 54.5 °F 30.1 in WSW 8 mph 13 mph 53 % 0 in
13:37 73 °F 55.4 °F 30.1 in WNW 6 mph 13 mph 54 % 0 in
13:42 73 °F 55.4 °F 30.1 in SW 11 mph 12 mph 54 % 0 in
13:52 73.6 °F 55.4 °F 30.1 in WSW 6 mph 13 mph 53 % 0 in
13:57 74.1 °F 55.9 °F 30.1 in WSW 5 mph 13 mph 53 % 0 in
14:02 73.9 °F 55.2 °F 30.1 in West 10 mph 13 mph 52 % 0 in
14:07 73.6 °F 55.4 °F 30.1 in SW 1 mph 16 mph 53 % 0 in
14:12 74.1 °F 55.4 °F 30.1 in WSW 8 mph 16 mph 52 % 0 in
14:17 73.8 °F 55 °F 30.1 in West 9 mph 14 mph 52 % 0 in
14:22 73.8 °F 56.1 °F 30.1 in West 5 mph 14 mph 54 % 0 in
14:32 74.5 °F 56.3 °F 30.1 in West 8 mph 14 mph 53 % 0 in
14:37 74.7 °F 55.4 °F 30.1 in West 8 mph 12 mph 51 % 0 in
14:42 74.3 °F 55.6 °F 30.1 in NW 9 mph 12 mph 52 % 0 in
14:47 74.3 °F 56.1 °F 30.1 in NW 7 mph 17 mph 53 % 0 in
14:52 74.8 °F 56.5 °F 30.1 in NW 2 mph 17 mph 53 % 0 in
15:02 74.5 °F 55.8 °F 30.1 in WNW 8 mph 15 mph 52 % 0 in
15:12 74.7 °F 55.9 °F 30.1 in WNW 4 mph 15 mph 52 % 0 in
15:17 74.7 °F 55.4 °F 30.1 in WSW 4 mph 14 mph 51 % 0 in
15:22 74.1 °F 55.9 °F 30.1 in West 8 mph 14 mph 53 % 0 in
15:27 74.1 °F 55.9 °F 30.1 in SW 1 mph 14 mph 53 % 0 in
15:32 75.6 °F 55.6 °F 30.1 in West 4 mph 14 mph 50 % 0 in
15:37 75 °F 54 °F 30.1 in West 5 mph 11 mph 48 % 0 in
15:42 74.8 °F 55 °F 30.1 in WSW 7 mph 11 mph 50 % 0 in
15:52 75.4 °F 54.9 °F 30.1 in West 8 mph 15 mph 49 % 0 in
15:57 75.9 °F 55.4 °F 30.1 in West 1 mph 15 mph 49 % 0 in
16:02 76.3 °F 55.8 °F 30.1 in WNW 6 mph 15 mph 49 % 0 in
16:07 75.9 °F 55.4 °F 30.1 in West 7 mph 15 mph 49 % 0 in
16:12 75.6 °F 55.6 °F 30.1 in NNW 6 mph 15 mph 50 % 0 in
16:17 75.2 °F 56.3 °F 30.1 in WSW 5 mph 15 mph 52 % 0 in
16:22 75.4 °F 55.9 °F 30.1 in WSW 9 mph 15 mph 51 % 0 in
16:27 75.2 °F 56.3 °F 30.1 in West 2 mph 13 mph 52 % 0 in
16:32 75 °F 55.6 °F 30.1 in West 2 mph 13 mph 51 % 0 in
16:37 74.8 °F 56.1 °F 30.1 in WNW 1 mph 13 mph 52 % 0 in
16:42 75.7 °F 55.2 °F 30.1 in West 7 mph 13 mph 49 % 0 in
16:47 75.9 °F 55.4 °F 30.1 in WSW 10 mph 12 mph 49 % 0 in
16:52 75.6 °F 56.1 °F 30.1 in WNW 6 mph 12 mph 51 % 0 in
16:57 75.7 °F 55.8 °F 30.1 in WNW 9 mph 12 mph 50 % 0 in
17:02 75.7 °F 55.8 °F 30.1 in WNW 4 mph 12 mph 50 % 0 in
17:12 76.3 °F 54.5 °F 30.1 in West 5 mph 14 mph 47 % 0 in
17:17 76.3 °F 55.8 °F 30.1 in WNW 11 mph 13 mph 49 % 0 in
17:22 75.9 °F 55.4 °F 30.1 in WNW 7 mph 13 mph 49 % 0 in
17:32 75.6 °F 55 °F 30.1 in WNW 3 mph 12 mph 49 % 0 in
17:37 75.6 °F 54.5 °F 30.1 in West 5 mph 12 mph 48 % 0 in
17:42 75.6 °F 54.5 °F 30.1 in WNW 8 mph 12 mph 48 % 0 in
17:47 75.6 °F 54.5 °F 30.1 in NW 6 mph 13 mph 48 % 0 in
17:52 75.7 °F 55.2 °F 30.1 in WNW 7 mph 13 mph 49 % 0 in
17:57 75.6 °F 54.5 °F 30.1 in WNW 5 mph 14 mph 48 % 0 in
18:02 75.7 °F 54.1 °F 30.1 in West 7 mph 14 mph 47 % 0 in
18:12 76.5 °F 54.7 °F 30.1 in WNW 7 mph 14 mph 47 % 0 in
18:17 76.5 °F 54.1 °F 30.1 in WNW 5 mph 12 mph 46 % 0 in
18:22 76.8 °F 54.5 °F 30.1 in WNW 2 mph 12 mph 46 % 0 in
18:27 76.8 °F 54.5 °F 30.1 in WNW 6 mph 12 mph 46 % 0 in
18:32 76.6 °F 54.3 °F 30.1 in West 6 mph 11 mph 46 % 0 in
18:42 77.2 °F 55.4 °F 30.1 in WSW 4 mph 10 mph 47 % 0 in
18:52 76.8 °F 54.5 °F 30.1 in WSW 2 mph 11 mph 46 % 0 in
18:57 77 °F 54 °F 30.1 in West 4 mph 11 mph 45 % 0 in
19:02 76.8 °F 54.5 °F 30.1 in WNW 5 mph 11 mph 46 % 0 in
19:07 76.6 °F 54.3 °F 30.1 in West 7 mph 13 mph 46 % 0 in
19:12 76.3 °F 54 °F 30.1 in West 8 mph 13 mph 46 % 0 in
19:17 76.8 °F 53.8 °F 30.1 in WNW 4 mph 12 mph 45 % 0 in
19:22 76.8 °F 54.5 °F 30.1 in West 7 mph 12 mph 46 % 0 in
19:27 77 °F 54 °F 30.1 in West 3 mph 12 mph 45 % 0 in
19:32 76.6 °F 54.3 °F 30.1 in West 2 mph 12 mph 46 % 0 in
19:37 76.5 °F 53.6 °F 30.1 in WNW 3 mph 12 mph 45 % 0 in
19:42 76.3 °F 54 °F 30.1 in NW 2 mph 12 mph 46 % 0 in
19:47 75.9 °F 53.6 °F 30.1 in WNW 5 mph 12 mph 46 % 0 in
19:52 75.7 °F 53.4 °F 30.1 in WNW 12 mph 12 mph 46 % 0 in
20:02 75.4 °F 53.8 °F 30.1 in WNW 6 mph 15 mph 47 % 0 in
20:07 75 °F 53.4 °F 30.1 in West 6 mph 15 mph 47 % 0 in
20:12 74.7 °F 53.6 °F 30.1 in NW 3 mph 15 mph 48 % 0 in
20:17 74.5 °F 53.4 °F 30.1 in West 3 mph 10 mph 48 % 0 in
20:22 74.5 °F 54.1 °F 30.1 in WNW 5 mph 10 mph 49 % 0 in
20:27 74.1 °F 53.8 °F 30.1 in West 2 mph 7 mph 49 % 0 in
20:32 73.9 °F 54.1 °F 30.1 in Calm   7 mph 50 % 0 in
20:42 73.4 °F 54.1 °F 30.1 in WNW 2 mph 7 mph 51 % 0 in
20:52 73 °F 54.3 °F 30.1 in Calm   7 mph 52 % 0 in
20:57 73 °F 54.9 °F 30.1 in West 2 mph 5 mph 53 % 0 in
21:02 72.9 °F 54.7 °F 30.1 in WNW 2 mph 5 mph 53 % 0 in
21:07 72.9 °F 54.7 °F 30.1 in Calm   4 mph 53 % 0 in
21:12 72.7 °F 55 °F 30.1 in WNW 1 mph 4 mph 54 % 0 in
21:17 72.7 °F 55 °F 30.1 in Calm   3 mph 54 % 0 in
21:22 72.9 °F 55.2 °F 30.1 in West 2 mph 3 mph 54 % 0 in
21:27 72.7 °F 55 °F 30.1 in Calm   3 mph 54 % 0 in
21:32 72.7 °F 55 °F 30.1 in Calm   3 mph 54 % 0 in
21:42 72 °F 55.4 °F 30.1 in West 1 mph 2 mph 56 % 0 in
21:47 71.6 °F 55.6 °F 30.1 in Calm   1 mph 57 % 0 in
21:52 71.2 °F 55.8 °F 30.1 in West 1 mph 1 mph 58 % 0 in
21:57 70.9 °F 55.4 °F 30.1 in Calm   1 mph 58 % 0 in
22:02 70.3 °F 55.4 °F 30.1 in West 1 mph 1 mph 59 % 0 in
22:07 70 °F 55.4 °F 30.1 in Calm   1 mph 60 % 0 in
22:12 69.6 °F 55.6 °F 30.1 in Calm   1 mph 61 % 0 in
22:17 69.4 °F 55.9 °F 30.1 in Calm   1 mph 62 % 0 in
22:22 68.9 °F 55.8 °F 30.1 in Calm   1 mph 63 % 0 in
22:32 68.2 °F 55.6 °F 30.1 in Calm     64 % 0 in
22:37 67.8 °F 55.6 °F 30.1 in Calm   1 mph 65 % 0 in
22:42 67.5 °F 55.8 °F 30.1 in Calm   1 mph 66 % 0 in
22:52 66.9 °F 55.6 °F 30.1 in Calm   1 mph 67 % 0 in
22:57 66.7 °F 55.8 °F 30.1 in Calm   1 mph 68 % 0 in
23:02 66.6 °F 55.6 °F 30.1 in Calm   1 mph 68 % 0 in
23:12 65.8 °F 55.4 °F 30.1 in Calm     69 % 0 in
23:17 65.5 °F 55.4 °F 30.1 in Calm     70 % 0 in
23:22 65.1 °F 55.4 °F 30.1 in Calm     71 % 0 in
23:27 64.9 °F 55.4 °F 30.1 in Calm     71 % 0 in
23:37 64.2 °F 55 °F 30.1 in Calm     72 % 0 in
23:42 64 °F 54.9 °F 30.1 in Calm     72 % 0 in
23:52 63.9 °F 54.7 °F 30.1 in Calm   1 mph 72 % 0 in
23:57 63.9 °F 55 °F 30.1 in Calm   1 mph 73 % 0 in
Meteo18
Compliments of Weather Underground - 4 mb

Script developed by  Jim McMurry - jmcmurry@mwt.net Adapted for the template by  Wim van der Kuil - Leuven-Template.eu

You find our weather info also at:

European Weather Network

Weather Underground

Equipment we use:

Weather-station
Davis Vue

Weather-program
Meteohub

Weather-server
Raspberry PI 2 B+

Provider
1 and 1

Davis Vue

Meteohub

Raspberry PI 2 B+

1 and 1